Terminal Aerodrome Forecast
Issued by NWS Cleveland, OH

Home | Current Version | Previous Version | Text Only | Print | Product List | Glossary On
Versions: 1 2 3 4 5 6 7 8 9 10 11 12 13 14 15 16 17 18 19
000
FTUS41 KCLE 250532
TAFYNG
TAF
KYNG 250532Z 2506/2606 17005KT P6SM BKN250
     FM250800 21004KT 4SM BR SCT200
     FM251300 22008KT P6SM VCSH BKN045 OVC100
     FM252000 24008KT P6SM SCT035 BKN100
     FM252300 VRB05KT P6SM SKC=

USA.gov is the U.S. government's official web portal to all federal, state and local government web resources and services.